sensor_id;sensor_type;location;lat;lon;timestamp;pressure;altitude;pressure_sealevel;temperature;humidity
27805;BME280;15183;51.350;11.102;2023-05-09T00:00:22;100564.88;;;15.42;47.83
27805;BME280;15183;51.350;11.102;2023-05-09T00:02:48;100563.50;;;15.40;47.65
27805;BME280;15183;51.350;11.102;2023-05-09T00:05:16;100568.50;;;15.36;47.67
27805;BME280;15183;51.350;11.102;2023-05-09T00:07:42;100570.97;;;15.38;47.84
27805;BME280;15183;51.350;11.102;2023-05-09T00:10:09;100541.34;;;15.10;47.90
27805;BME280;15183;51.350;11.102;2023-05-09T00:12:35;100533.22;;;15.05;47.71
27805;BME280;15183;51.350;11.102;2023-05-09T00:15:02;100566.22;;;15.28;47.56
27805;BME280;15183;51.350;11.102;2023-05-09T00:17:30;100580.63;;;15.27;47.99
27805;BME280;15183;51.350;11.102;2023-05-09T00:19:56;100552.84;;;15.11;48.42
27805;BME280;15183;51.350;11.102;2023-05-09T00:22:23;100565.00;;;15.18;48.24
27805;BME280;15183;51.350;11.102;2023-05-09T00:24:49;100561.63;;;15.11;48.34
27805;BME280;15183;51.350;11.102;2023-05-09T00:27:17;100570.09;;;15.20;48.39
27805;BME280;15183;51.350;11.102;2023-05-09T00:29:43;100508.31;;;14.70;48.05
27805;BME280;15183;51.350;11.102;2023-05-09T00:32:10;100543.59;;;15.01;48.44
27805;BME280;15183;51.350;11.102;2023-05-09T00:34:36;100578.91;;;15.21;48.42
27805;BME280;15183;51.350;11.102;2023-05-09T00:37:03;100561.06;;;15.09;48.35
27805;BME280;15183;51.350;11.102;2023-05-09T00:39:29;100509.19;;;14.76;48.19
27805;BME280;15183;51.350;11.102;2023-05-09T00:41:56;100565.69;;;15.14;48.57
27805;BME280;15183;51.350;11.102;2023-05-09T00:44:22;100531.44;;;14.94;48.77
27805;BME280;15183;51.350;11.102;2023-05-09T00:46:49;100567.22;;;15.10;48.46
27805;BME280;15183;51.350;11.102;2023-05-09T00:49:15;100550.06;;;15.05;48.30
27805;BME280;15183;51.350;11.102;2023-05-09T00:51:42;100557.81;;;15.07;48.54
27805;BME280;15183;51.350;11.102;2023-05-09T00:54:08;100529.81;;;14.93;48.42
27805;BME280;15183;51.350;11.102;2023-05-09T00:56:35;100523.81;;;14.85;48.45
27805;BME280;15183;51.350;11.102;2023-05-09T00:59:02;100541.16;;;15.00;48.46
27805;BME280;15183;51.350;11.102;2023-05-09T01:01:29;100527.84;;;14.88;48.65
27805;BME280;15183;51.350;11.102;2023-05-09T01:03:55;100545.13;;;14.97;48.70
27805;BME280;15183;51.350;11.102;2023-05-09T01:09:54;100523.34;;;14.76;48.68
27805;BME280;15183;51.350;11.102;2023-05-09T01:12:26;100537.75;;;14.75;48.76
27805;BME280;15183;51.350;11.102;2023-05-09T01:15:05;100509.56;;;14.56;49.42
27805;BME280;15183;51.350;11.102;2023-05-09T01:17:52;100523.69;;;14.68;49.17
27805;BME280;15183;51.350;11.102;2023-05-09T01:20:35;100526.13;;;14.58;49.32
27805;BME280;15183;51.350;11.102;2023-05-09T01:26:44;100531.69;;;14.68;49.04
27805;BME280;15183;51.350;11.102;2023-05-09T01:29:37;100521.25;;;14.67;49.41
27805;BME280;15183;51.350;11.102;2023-05-09T01:32:21;100497.75;;;14.52;49.26
27805;BME280;15183;51.350;11.102;2023-05-09T01:34:51;100490.38;;;14.42;49.55
27805;BME280;15183;51.350;11.102;2023-05-09T01:37:27;100478.44;;;14.32;49.50
27805;BME280;15183;51.350;11.102;2023-05-09T01:39:59;100485.16;;;14.35;49.67
27805;BME280;15183;51.350;11.102;2023-05-09T01:42:42;100509.25;;;14.52;49.52
27805;BME280;15183;51.350;11.102;2023-05-09T01:45:10;100482.38;;;14.30;49.49
27805;BME280;15183;51.350;11.102;2023-05-09T01:47:39;100499.84;;;14.38;49.89
27805;BME280;15183;51.350;11.102;2023-05-09T01:50:10;100508.00;;;14.43;49.60
27805;BME280;15183;51.350;11.102;2023-05-09T01:52:38;100490.84;;;14.27;49.62
27805;BME280;15183;51.350;11.102;2023-05-09T01:55:06;100522.81;;;14.39;49.36
27805;BME280;15183;51.350;11.102;2023-05-09T01:57:34;100511.34;;;14.26;49.84
27805;BME280;15183;51.350;11.102;2023-05-09T02:00:02;100497.22;;;14.26;49.81
27805;BME280;15183;51.350;11.102;2023-05-09T02:02:28;100500.38;;;14.23;49.64
27805;BME280;15183;51.350;11.102;2023-05-09T02:04:55;100502.00;;;14.24;49.82
27805;BME280;15183;51.350;11.102;2023-05-09T02:07:23;100502.56;;;14.26;50.04
27805;BME280;15183;51.350;11.102;2023-05-09T02:09:51;100508.56;;;14.21;50.14
27805;BME280;15183;51.350;11.102;2023-05-09T02:12:20;100439.34;;;13.73;49.97
27805;BME280;15183;51.350;11.102;2023-05-09T02:14:46;100492.84;;;14.08;49.79
27805;BME280;15183;51.350;11.102;2023-05-09T02:17:13;100496.41;;;14.01;50.00
27805;BME280;15183;51.350;11.102;2023-05-09T02:19:42;100486.78;;;14.00;49.43
27805;BME280;15183;51.350;11.102;2023-05-09T02:22:10;100506.63;;;14.04;49.69
27805;BME280;15183;51.350;11.102;2023-05-09T02:24:37;100489.13;;;13.97;49.87
27805;BME280;15183;51.350;11.102;2023-05-09T02:27:04;100491.91;;;13.90;49.71
27805;BME280;15183;51.350;11.102;2023-05-09T02:29:36;100486.22;;;13.74;49.89
27805;BME280;15183;51.350;11.102;2023-05-09T02:32:15;100481.38;;;13.71;50.07
27805;BME280;15183;51.350;11.102;2023-05-09T02:34:42;100502.06;;;13.81;50.19
27805;BME280;15183;51.350;11.102;2023-05-09T02:37:12;100507.41;;;13.81;50.27
27805;BME280;15183;51.350;11.102;2023-05-09T02:39:38;100510.44;;;13.85;50.23
27805;BME280;15183;51.350;11.102;2023-05-09T02:42:09;100487.38;;;13.67;49.62
27805;BME280;15183;51.350;11.102;2023-05-09T02:44:36;100512.97;;;13.80;50.19
27805;BME280;15183;51.350;11.102;2023-05-09T02:47:05;100461.94;;;13.40;49.82
27805;BME280;15183;51.350;11.102;2023-05-09T02:49:33;100482.84;;;13.55;50.44
27805;BME280;15183;51.350;11.102;2023-05-09T02:51:59;100436.81;;;13.24;50.41
27805;BME280;15183;51.350;11.102;2023-05-09T02:54:26;100423.47;;;13.12;50.21
27805;BME280;15183;51.350;11.102;2023-05-09T02:56:53;100497.66;;;13.51;50.07
27805;BME280;15183;51.350;11.102;2023-05-09T02:59:19;100514.22;;;13.53;50.09
27805;BME280;15183;51.350;11.102;2023-05-09T03:01:46;100432.25;;;13.01;50.46
27805;BME280;15183;51.350;11.102;2023-05-09T03:04:12;100471.53;;;13.29;50.77
27805;BME280;15183;51.350;11.102;2023-05-09T03:06:39;100488.94;;;13.44;50.22
27805;BME280;15183;51.350;11.102;2023-05-09T03:09:05;100488.56;;;13.40;50.93
27805;BME280;15183;51.350;11.102;2023-05-09T03:11:33;100484.38;;;13.32;50.31
27805;BME280;15183;51.350;11.102;2023-05-09T03:14:02;100437.22;;;13.09;50.59
27805;BME280;15183;51.350;11.102;2023-05-09T03:16:29;100442.78;;;13.08;50.83
27805;BME280;15183;51.350;11.102;2023-05-09T03:18:56;100407.19;;;12.78;50.95
27805;BME280;15183;51.350;11.102;2023-05-09T03:21:22;100455.06;;;13.09;50.92
27805;BME280;15183;51.350;11.102;2023-05-09T03:23:49;100478.34;;;13.25;50.67
27805;BME280;15183;51.350;11.102;2023-05-09T03:26:15;100476.94;;;13.23;50.54
27805;BME280;15183;51.350;11.102;2023-05-09T03:28:41;100475.78;;;13.18;50.63
27805;BME280;15183;51.350;11.102;2023-05-09T03:31:08;100446.25;;;13.08;50.82
27805;BME280;15183;51.350;11.102;2023-05-09T03:33:34;100474.72;;;13.20;50.45
27805;BME280;15183;51.350;11.102;2023-05-09T03:36:01;100476.72;;;13.24;50.95
27805;BME280;15183;51.350;11.102;2023-05-09T03:38:27;100468.03;;;13.17;50.98
27805;BME280;15183;51.350;11.102;2023-05-09T03:40:53;100466.50;;;13.09;50.73
27805;BME280;15183;51.350;11.102;2023-05-09T03:43:20;100460.59;;;13.07;50.55
27805;BME280;15183;51.350;11.102;2023-05-09T03:45:46;100454.31;;;13.01;50.84
27805;BME280;15183;51.350;11.102;2023-05-09T03:48:13;100471.59;;;13.11;50.81
27805;BME280;15183;51.350;11.102;2023-05-09T03:50:39;100459.06;;;12.99;50.97
27805;BME280;15183;51.350;11.102;2023-05-09T03:53:06;100478.63;;;13.05;51.01
27805;BME280;15183;51.350;11.102;2023-05-09T03:55:32;100462.28;;;13.01;51.45
27805;BME280;15183;51.350;11.102;2023-05-09T03:57:59;100474.25;;;13.11;51.44
27805;BME280;15183;51.350;11.102;2023-05-09T04:00:25;100454.94;;;13.15;51.47
27805;BME280;15183;51.350;11.102;2023-05-09T04:02:52;100450.59;;;13.33;51.35
27805;BME280;15183;51.350;11.102;2023-05-09T04:05:18;100477.06;;;13.70;51.35
27805;BME280;15183;51.350;11.102;2023-05-09T04:07:45;100470.38;;;13.92;51.63
27805;BME280;15183;51.350;11.102;2023-05-09T04:10:11;100439.78;;;14.06;51.73
27805;BME280;15183;51.350;11.102;2023-05-09T04:12:38;100438.69;;;14.31;51.48
27805;BME280;15183;51.350;11.102;2023-05-09T04:15:05;100439.06;;;14.64;51.55
27805;BME280;15183;51.350;11.102;2023-05-09T04:17:32;100446.69;;;15.01;51.35
27805;BME280;15183;51.350;11.102;2023-05-09T04:19:58;100459.38;;;15.40;51.24
27805;BME280;15183;51.350;11.102;2023-05-09T04:22:25;100448.34;;;15.70;50.89
27805;BME280;15183;51.350;11.102;2023-05-09T04:24:51;100460.78;;;16.16;50.62
27805;BME280;15183;51.350;11.102;2023-05-09T04:27:18;100434.16;;;16.26;50.63
27805;BME280;15183;51.350;11.102;2023-05-09T04:29:44;100440.97;;;16.61;50.00
27805;BME280;15183;51.350;11.102;2023-05-09T04:32:11;100463.91;;;17.02;50.37
27805;BME280;15183;51.350;11.102;2023-05-09T04:34:37;100441.28;;;17.15;50.17
27805;BME280;15183;51.350;11.102;2023-05-09T04:37:03;100456.84;;;17.50;49.58
27805;BME280;15183;51.350;11.102;2023-05-09T04:39:30;100458.88;;;17.76;49.63
27805;BME280;15183;51.350;11.102;2023-05-09T04:41:57;100425.44;;;17.84;49.40
27805;BME280;15183;51.350;11.102;2023-05-09T04:44:23;100437.94;;;18.16;48.72
27805;BME280;15183;51.350;11.102;2023-05-09T04:46:50;100431.59;;;18.37;48.79
27805;BME280;15183;51.350;11.102;2023-05-09T04:49:16;100453.72;;;18.71;48.47
27805;BME280;15183;51.350;11.102;2023-05-09T04:51:42;100435.47;;;18.73;48.21
27805;BME280;15183;51.350;11.102;2023-05-09T04:54:09;100448.66;;;18.95;47.33
27805;BME280;15183;51.350;11.102;2023-05-09T04:56:35;100423.69;;;18.94;46.98
27805;BME280;15183;51.350;11.102;2023-05-09T04:59:01;100450.59;;;19.15;46.84
27805;BME280;15183;51.350;11.102;2023-05-09T05:01:28;100444.13;;;19.21;46.84
27805;BME280;15183;51.350;11.102;2023-05-09T05:03:55;100433.66;;;19.35;46.58
27805;BME280;15183;51.350;11.102;2023-05-09T05:06:21;100440.38;;;19.43;46.64
27805;BME280;15183;51.350;11.102;2023-05-09T05:08:47;100442.22;;;19.69;46.53
27805;BME280;15183;51.350;11.102;2023-05-09T05:11:14;100421.50;;;19.69;46.00
27805;BME280;15183;51.350;11.102;2023-05-09T05:13:42;100436.50;;;20.06;46.23
27805;BME280;15183;51.350;11.102;2023-05-09T05:16:09;100435.88;;;20.30;46.01
27805;BME280;15183;51.350;11.102;2023-05-09T05:18:35;100444.09;;;20.54;45.55
27805;BME280;15183;51.350;11.102;2023-05-09T05:21:02;100423.91;;;20.57;45.46
27805;BME280;15183;51.350;11.102;2023-05-09T05:23:28;100437.22;;;20.83;45.40
27805;BME280;15183;51.350;11.102;2023-05-09T05:25:55;100433.09;;;20.96;44.76
27805;BME280;15183;51.350;11.102;2023-05-09T05:28:21;100426.00;;;21.10;44.20
27805;BME280;15183;51.350;11.102;2023-05-09T05:30:48;100421.75;;;21.34;44.34
27805;BME280;15183;51.350;11.102;2023-05-09T05:33:15;100392.16;;;21.29;43.60
27805;BME280;15183;51.350;11.102;2023-05-09T05:35:41;100410.25;;;21.52;43.68
27805;BME280;15183;51.350;11.102;2023-05-09T05:38:07;100392.06;;;21.63;43.17
27805;BME280;15183;51.350;11.102;2023-05-09T05:40:34;100431.94;;;21.96;42.84
27805;BME280;15183;51.350;11.102;2023-05-09T05:43:00;100419.88;;;22.12;43.00
27805;BME280;15183;51.350;11.102;2023-05-09T05:45:27;100418.66;;;22.24;42.90
27805;BME280;15183;51.350;11.102;2023-05-09T05:47:55;100353.97;;;21.94;42.41
27805;BME280;15183;51.350;11.102;2023-05-09T05:50:21;100420.88;;;22.60;42.41
27805;BME280;15183;51.350;11.102;2023-05-09T05:52:48;100365.41;;;22.30;41.95
27805;BME280;15183;51.350;11.102;2023-05-09T05:55:14;100432.69;;;22.83;41.63
27805;BME280;15183;51.350;11.102;2023-05-09T05:57:41;100421.22;;;22.92;41.36
27805;BME280;15183;51.350;11.102;2023-05-09T06:00:08;100395.38;;;22.86;40.77
27805;BME280;15183;51.350;11.102;2023-05-09T06:02:36;100407.56;;;23.02;40.60
27805;BME280;15183;51.350;11.102;2023-05-09T06:05:03;100401.69;;;23.14;40.42
27805;BME280;15183;51.350;11.102;2023-05-09T06:07:32;100388.84;;;23.06;39.92
27805;BME280;15183;51.350;11.102;2023-05-09T06:09:58;100391.66;;;23.15;40.21
27805;BME280;15183;51.350;11.102;2023-05-09T06:12:24;100358.28;;;22.91;40.07
27805;BME280;15183;51.350;11.102;2023-05-09T06:14:51;100380.66;;;23.11;39.70
27805;BME280;15183;51.350;11.102;2023-05-09T06:17:18;100403.16;;;23.25;39.49
27805;BME280;15183;51.350;11.102;2023-05-09T06:19:44;100398.84;;;23.24;39.19
27805;BME280;15183;51.350;11.102;2023-05-09T06:22:11;100389.09;;;23.23;39.49
27805;BME280;15183;51.350;11.102;2023-05-09T06:24:37;100325.34;;;22.89;38.98
27805;BME280;15183;51.350;11.102;2023-05-09T06:27:03;100312.53;;;22.81;39.21
27805;BME280;15183;51.350;11.102;2023-05-09T06:29:30;100312.81;;;22.79;38.61
27805;BME280;15183;51.350;11.102;2023-05-09T06:31:56;100338.59;;;23.05;38.69
27805;BME280;15183;51.350;11.102;2023-05-09T06:34:23;100359.03;;;23.11;39.12
27805;BME280;15183;51.350;11.102;2023-05-09T06:36:49;100299.13;;;22.90;39.31
27805;BME280;15183;51.350;11.102;2023-05-09T06:39:16;100367.09;;;23.44;38.82
27805;BME280;15183;51.350;11.102;2023-05-09T06:41:42;100369.81;;;23.58;38.83
27805;BME280;15183;51.350;11.102;2023-05-09T06:44:09;100354.91;;;23.61;38.78
27805;BME280;15183;51.350;11.102;2023-05-09T06:46:35;100289.00;;;23.29;39.18
27805;BME280;15183;51.350;11.102;2023-05-09T06:49:01;100323.44;;;23.65;38.98
27805;BME280;15183;51.350;11.102;2023-05-09T06:51:28;100320.34;;;23.72;38.95
27805;BME280;15183;51.350;11.102;2023-05-09T06:53:54;100347.56;;;24.03;38.20
27805;BME280;15183;51.350;11.102;2023-05-09T06:56:21;100296.59;;;23.68;37.43
27805;BME280;15183;51.350;11.102;2023-05-09T06:58:48;100326.00;;;23.98;37.66
27805;BME280;15183;51.350;11.102;2023-05-09T07:01:14;100332.69;;;24.14;37.20
27805;BME280;15183;51.350;11.102;2023-05-09T07:03:41;100326.13;;;24.07;37.72
27805;BME280;15183;51.350;11.102;2023-05-09T07:06:08;100325.69;;;24.13;37.50
27805;BME280;15183;51.350;11.102;2023-05-09T07:08:34;100344.00;;;24.31;37.25
27805;BME280;15183;51.350;11.102;2023-05-09T07:11:01;100320.97;;;24.19;37.72
27805;BME280;15183;51.350;11.102;2023-05-09T07:13:27;100319.25;;;24.23;37.42
27805;BME280;15183;51.350;11.102;2023-05-09T07:15:53;100316.84;;;24.22;37.08
27805;BME280;15183;51.350;11.102;2023-05-09T07:18:20;100294.88;;;24.23;37.21
27805;BME280;15183;51.350;11.102;2023-05-09T07:20:46;100266.75;;;23.96;36.57
27805;BME280;15183;51.350;11.102;2023-05-09T07:23:13;100290.50;;;24.13;36.64
27805;BME280;15183;51.350;11.102;2023-05-09T07:25:39;100281.09;;;24.11;36.69
27805;BME280;15183;51.350;11.102;2023-05-09T07:28:05;100321.03;;;24.28;36.82
27805;BME280;15183;51.350;11.102;2023-05-09T07:30:32;100321.22;;;24.32;37.23
27805;BME280;15183;51.350;11.102;2023-05-09T07:32:58;100321.22;;;24.32;37.35
27805;BME280;15183;51.350;11.102;2023-05-09T07:35:24;100298.63;;;24.13;36.83
27805;BME280;15183;51.350;11.102;2023-05-09T07:37:51;100266.47;;;23.98;36.85
27805;BME280;15183;51.350;11.102;2023-05-09T07:40:18;100295.56;;;24.29;36.50
27805;BME280;15183;51.350;11.102;2023-05-09T07:42:44;100316.56;;;24.46;36.35
27805;BME280;15183;51.350;11.102;2023-05-09T07:45:15;100274.38;;;24.31;35.89
27805;BME280;15183;51.350;11.102;2023-05-09T07:47:41;100299.00;;;24.43;35.87
27805;BME280;15183;51.350;11.102;2023-05-09T07:50:08;100310.88;;;24.56;35.79
27805;BME280;15183;51.350;11.102;2023-05-09T07:52:34;100302.94;;;24.60;36.16
27805;BME280;15183;51.350;11.102;2023-05-09T07:55:01;100309.34;;;24.64;35.97
27805;BME280;15183;51.350;11.102;2023-05-09T07:57:27;100271.53;;;24.59;36.32
27805;BME280;15183;51.350;11.102;2023-05-09T07:59:54;100278.44;;;24.65;36.08
27805;BME280;15183;51.350;11.102;2023-05-09T08:02:20;100290.16;;;24.75;35.81
27805;BME280;15183;51.350;11.102;2023-05-09T08:04:47;100276.38;;;24.71;36.33
27805;BME280;15183;51.350;11.102;2023-05-09T08:07:16;100270.84;;;24.76;36.22
27805;BME280;15183;51.350;11.102;2023-05-09T08:09:42;100213.38;;;24.34;36.41
27805;BME280;15183;51.350;11.102;2023-05-09T08:12:09;100276.06;;;24.95;36.29
27805;BME280;15183;51.350;11.102;2023-05-09T08:14:35;100223.75;;;24.63;35.76
27805;BME280;15183;51.350;11.102;2023-05-09T08:17:01;100267.00;;;25.00;35.38
27805;BME280;15183;51.350;11.102;2023-05-09T08:19:28;100265.72;;;25.06;35.68
27805;BME280;15183;51.350;11.102;2023-05-09T08:21:54;100212.72;;;24.82;35.64
27805;BME280;15183;51.350;11.102;2023-05-09T08:24:21;100208.25;;;24.87;35.68
27805;BME280;15183;51.350;11.102;2023-05-09T08:26:47;100224.44;;;25.09;35.75
27805;BME280;15183;51.350;11.102;2023-05-09T08:29:13;100218.56;;;25.16;35.94
27805;BME280;15183;51.350;11.102;2023-05-09T08:31:40;100230.22;;;25.25;35.45
27805;BME280;15183;51.350;11.102;2023-05-09T08:34:06;100243.97;;;25.38;34.92
27805;BME280;15183;51.350;11.102;2023-05-09T08:36:33;100240.66;;;25.41;35.56
27805;BME280;15183;51.350;11.102;2023-05-09T08:39:00;100216.69;;;25.34;35.34
27805;BME280;15183;51.350;11.102;2023-05-09T08:41:27;100202.16;;;25.30;34.73
27805;BME280;15183;51.350;11.102;2023-05-09T08:43:54;100217.34;;;25.40;35.32
27805;BME280;15183;51.350;11.102;2023-05-09T08:46:38;100214.00;;;25.43;34.67
27805;BME280;15183;51.350;11.102;2023-05-09T08:49:08;100198.47;;;25.35;35.23
27805;BME280;15183;51.350;11.102;2023-05-09T08:51:35;100199.84;;;25.46;35.09
27805;BME280;15183;51.350;11.102;2023-05-09T08:54:02;100162.25;;;25.31;35.10
27805;BME280;15183;51.350;11.102;2023-05-09T08:56:29;100205.44;;;25.76;34.80
27805;BME280;15183;51.350;11.102;2023-05-09T08:58:57;100129.06;;;25.34;34.70
27805;BME280;15183;51.350;11.102;2023-05-09T09:01:24;100179.72;;;25.74;34.68
27805;BME280;15183;51.350;11.102;2023-05-09T09:03:52;100198.88;;;25.86;34.67
27805;BME280;15183;51.350;11.102;2023-05-09T09:06:20;100164.06;;;25.70;34.51
27805;BME280;15183;51.350;11.102;2023-05-09T09:08:47;100174.47;;;25.77;34.37
27805;BME280;15183;51.350;11.102;2023-05-09T09:11:14;100176.03;;;25.87;34.42
27805;BME280;15183;51.350;11.102;2023-05-09T09:13:43;100178.91;;;25.91;34.87
27805;BME280;15183;51.350;11.102;2023-05-09T09:16:17;100161.50;;;25.92;34.95
27805;BME280;15183;51.350;11.102;2023-05-09T09:18:45;100176.53;;;26.15;34.81
27805;BME280;15183;51.350;11.102;2023-05-09T09:21:15;100164.19;;;26.09;34.30
27805;BME280;15183;51.350;11.102;2023-05-09T09:23:47;100099.41;;;25.64;34.35
27805;BME280;15183;51.350;11.102;2023-05-09T09:26:14;100150.13;;;26.07;34.60
27805;BME280;15183;51.350;11.102;2023-05-09T09:28:42;100135.59;;;26.21;34.20
27805;BME280;15183;51.350;11.102;2023-05-09T09:31:23;100114.34;;;26.23;34.79
27805;BME280;15183;51.350;11.102;2023-05-09T09:33:50;100143.78;;;26.51;34.22
27805;BME280;15183;51.350;11.102;2023-05-09T09:36:29;100138.47;;;26.63;34.42
27805;BME280;15183;51.350;11.102;2023-05-09T09:39:09;100143.34;;;26.79;34.32
27805;BME280;15183;51.350;11.102;2023-05-09T09:41:40;100156.41;;;26.94;33.99
27805;BME280;15183;51.350;11.102;2023-05-09T09:44:15;100138.31;;;26.98;33.73
27805;BME280;15183;51.350;11.102;2023-05-09T09:46:53;100129.03;;;26.99;33.64
27805;BME280;15183;51.350;11.102;2023-05-09T09:49:25;100120.41;;;26.97;33.95
27805;BME280;15183;51.350;11.102;2023-05-09T09:51:54;100124.56;;;26.95;34.31
27805;BME280;15183;51.350;11.102;2023-05-09T09:54:22;100123.31;;;26.92;34.07
27805;BME280;15183;51.350;11.102;2023-05-09T09:56:51;100087.50;;;26.60;33.69
27805;BME280;15183;51.350;11.102;2023-05-09T09:59:24;100104.03;;;26.76;34.11
27805;BME280;15183;51.350;11.102;2023-05-09T10:02:03;100121.72;;;26.91;33.86
27805;BME280;15183;51.350;11.102;2023-05-09T10:04:35;100071.84;;;26.57;33.90
27805;BME280;15183;51.350;11.102;2023-05-09T10:07:08;100110.50;;;26.93;33.52
27805;BME280;15183;51.350;11.102;2023-05-09T10:09:36;100108.88;;;27.00;33.95
27805;BME280;15183;51.350;11.102;2023-05-09T10:12:07;100087.97;;;26.92;33.41
27805;BME280;15183;51.350;11.102;2023-05-09T10:14:35;100089.88;;;26.92;33.32
27805;BME280;15183;51.350;11.102;2023-05-09T10:17:04;100091.81;;;26.91;33.74
27805;BME280;15183;51.350;11.102;2023-05-09T10:19:31;100081.28;;;26.81;33.90
27805;BME280;15183;51.350;11.102;2023-05-09T10:22:05;100078.22;;;26.91;33.41
27805;BME280;15183;51.350;11.102;2023-05-09T10:27:30;100087.56;;;27.02;34.12
27805;BME280;15183;51.350;11.102;2023-05-09T10:30:17;100075.97;;;27.14;33.86
27805;BME280;15183;51.350;11.102;2023-05-09T10:32:58;100070.44;;;27.23;33.42
27805;BME280;15183;51.350;11.102;2023-05-09T10:35:47;100061.88;;;27.34;33.60
27805;BME280;15183;51.350;11.102;2023-05-09T10:38:15;100047.81;;;27.32;33.26
27805;BME280;15183;51.350;11.102;2023-05-09T10:40:44;100022.50;;;27.19;33.71
27805;BME280;15183;51.350;11.102;2023-05-09T10:43:12;99990.22;;;27.08;34.01
27805;BME280;15183;51.350;11.102;2023-05-09T10:45:39;100010.06;;;27.30;33.80
27805;BME280;15183;51.350;11.102;2023-05-09T10:48:07;100002.88;;;27.25;32.70
27805;BME280;15183;51.350;11.102;2023-05-09T10:50:35;99998.56;;;27.24;33.07
27805;BME280;15183;51.350;11.102;2023-05-09T10:53:06;100003.63;;;27.35;33.79
27805;BME280;15183;51.350;11.102;2023-05-09T10:55:53;100005.09;;;27.44;33.96
27805;BME280;15183;51.350;11.102;2023-05-09T10:58:28;100018.94;;;27.73;33.05
27805;BME280;15183;51.350;11.102;2023-05-09T11:00:58;100007.38;;;27.88;33.05
27805;BME280;15183;51.350;11.102;2023-05-09T11:03:27;99999.31;;;28.05;32.75
27805;BME280;15183;51.350;11.102;2023-05-09T11:05:56;100002.19;;;28.21;32.18
27805;BME280;15183;51.350;11.102;2023-05-09T11:08:30;99946.22;;;27.98;32.04
27805;BME280;15183;51.350;11.102;2023-05-09T11:11:05;99978.09;;;28.35;32.33
27805;BME280;15183;51.350;11.102;2023-05-09T11:13:36;99987.25;;;28.55;32.29
27805;BME280;15183;51.350;11.102;2023-05-09T11:16:10;99923.16;;;28.33;31.29
27805;BME280;15183;51.350;11.102;2023-05-09T11:18:50;99964.44;;;28.60;31.45
27805;BME280;15183;51.350;11.102;2023-05-09T11:21:17;99959.09;;;28.51;31.34
27805;BME280;15183;51.350;11.102;2023-05-09T11:23:45;99967.84;;;28.57;31.25
27805;BME280;15183;51.350;11.102;2023-05-09T11:26:14;99943.56;;;28.52;31.60
27805;BME280;15183;51.350;11.102;2023-05-09T11:28:41;99947.56;;;28.70;31.36
27805;BME280;15183;51.350;11.102;2023-05-09T11:31:17;99933.16;;;28.70;31.27
27805;BME280;15183;51.350;11.102;2023-05-09T11:33:47;99910.44;;;28.78;31.26
27805;BME280;15183;51.350;11.102;2023-05-09T11:36:27;99926.75;;;29.07;30.93
27805;BME280;15183;51.350;11.102;2023-05-09T11:39:07;99935.56;;;29.16;30.28
27805;BME280;15183;51.350;11.102;2023-05-09T11:41:52;99931.06;;;29.08;30.70
27805;BME280;15183;51.350;11.102;2023-05-09T11:44:20;99920.88;;;29.05;30.80
27805;BME280;15183;51.350;11.102;2023-05-09T11:46:48;99930.38;;;29.11;30.38
27805;BME280;15183;51.350;11.102;2023-05-09T11:49:18;99877.44;;;28.83;30.42
27805;BME280;15183;51.350;11.102;2023-05-09T11:52:10;99903.63;;;29.00;29.90
27805;BME280;15183;51.350;11.102;2023-05-09T11:57:28;99911.88;;;28.75;30.72
27805;BME280;15183;51.350;11.102;2023-05-09T11:59:56;99874.00;;;28.58;30.33
27805;BME280;15183;51.350;11.102;2023-05-09T12:02:22;99849.19;;;28.47;30.36
27805;BME280;15183;51.350;11.102;2023-05-09T12:04:49;99904.47;;;28.88;30.43
27805;BME280;15183;51.350;11.102;2023-05-09T12:07:16;99876.22;;;28.81;29.69
27805;BME280;15183;51.350;11.102;2023-05-09T12:09:44;99883.91;;;28.91;29.56
27805;BME280;15183;51.350;11.102;2023-05-09T12:12:11;99860.75;;;28.85;29.60
27805;BME280;15183;51.350;11.102;2023-05-09T12:14:40;99826.56;;;28.75;29.54
27805;BME280;15183;51.350;11.102;2023-05-09T12:17:07;99857.75;;;28.90;29.54
27805;BME280;15183;51.350;11.102;2023-05-09T12:19:33;99800.81;;;28.44;29.78
27805;BME280;15183;51.350;11.102;2023-05-09T12:22:02;99819.34;;;28.38;30.32
27805;BME280;15183;51.350;11.102;2023-05-09T12:24:30;99869.16;;;28.51;30.56
27805;BME280;15183;51.350;11.102;2023-05-09T12:26:58;99839.75;;;28.16;30.23
27805;BME280;15183;51.350;11.102;2023-05-09T12:29:26;99793.03;;;27.77;30.94
27805;BME280;15183;51.350;11.102;2023-05-09T12:31:53;99833.97;;;27.93;30.61
27805;BME280;15183;51.350;11.102;2023-05-09T12:34:19;99854.19;;;27.92;30.50
27805;BME280;15183;51.350;11.102;2023-05-09T12:36:46;99852.06;;;27.72;31.39
27805;BME280;15183;51.350;11.102;2023-05-09T12:39:17;99848.66;;;27.63;30.67
27805;BME280;15183;51.350;11.102;2023-05-09T12:41:50;99848.50;;;27.47;31.42
27805;BME280;15183;51.350;11.102;2023-05-09T12:44:26;99841.13;;;27.35;30.86
27805;BME280;15183;51.350;11.102;2023-05-09T12:47:02;99847.81;;;27.25;31.33
27805;BME280;15183;51.350;11.102;2023-05-09T12:49:30;99828.75;;;27.13;31.50
27805;BME280;15183;51.350;11.102;2023-05-09T12:51:59;99814.03;;;27.01;32.28
27805;BME280;15183;51.350;11.102;2023-05-09T12:54:27;99821.72;;;27.12;31.39
27805;BME280;15183;51.350;11.102;2023-05-09T12:56:56;99804.50;;;26.95;31.19
27805;BME280;15183;51.350;11.102;2023-05-09T12:59:26;99813.13;;;26.97;31.51